Nearby METAR Reports

 

KDVT - Phoenix/Deer Vly, Arizona, USA
Distance from station: SSE 14mi, 22km
Updated: 08/07/2020 10:53am
Clear
Clear
 
Temperature: 97°F , 36°C
Dew Point: 54°F , 12°C
Humidity: 23%
Barometer: 29.92 inHg , 1013.2 hPa
Clouds: Clear
Visibility: 10 miles , 16 km
2020/08/07 17:53 KDVT 071753Z 10SM CLR 36/12 A2992 RMK AO2 SLP104 T03560122 10361 20239 50004
KSDL - Scottsdale, Arizona, USA
Distance from station: SE 22mi, 35km
Updated: 08/07/2020 10:53am
Clear
Clear
 Wind from NNW
Wind: NNW 6 mph , 9 km/h
Temperature: 99°F , 37°C
Dew Point: 48°F , 9°C
Humidity: 18%
Barometer: 29.93 inHg , 1013.5 hPa
Clouds: Clear
Visibility: 10 miles , 16 km
2020/08/07 17:53 KSDL 071753Z 33005KT 10SM CLR 37/09 A2993 RMK AO2 SLP104 T03670094 10367 20267 50004
 
KGEU - Glendale, Arizona, USA
Distance from station: SSW 25mi, 41km
Updated: 08/07/2020 10:47am
Clear
Clear
 Wind from E
Wind: E 5 mph , 7 km/h
Temperature: 99°F , 37°C
Dew Point: 55°F , 13°C
Humidity: 24%
Barometer: 29.91 inHg , 1012.9 hPa
Clouds: Clear
Visibility: 10 miles , 16 km
2020/08/07 17:47 KGEU 071747Z 08004KT 10SM SKC 37/13 A2991
KLUF - Luke Afb/Glendal, Arizona, USA
Distance from station: SSW 28mi, 45km
Updated: 08/07/2020 10:58am
Clear
Clear
 Wind from WSW
Wind: WSW 10 mph , 17 km/h
Temperature: 97°F , 36°C
Dew Point: 59°F , 15°C
Humidity: 28%
Barometer: 29.88 inHg , 1011.9 hPa
Clouds: Clear
Visibility: 10 miles , 16 km
2020/08/07 17:58 KLUF 071758Z AUTO 24009KT 10SM CLR 36/15 A2988 RMK AO2 SLP103 T03600146 10360 20245 50003
 
KPHX - Phoenix/Sky Hrbr, Arizona, USA
Distance from station: SSE 31mi, 51km
Updated: 08/07/2020 10:51am
Few Clouds
Few Clouds
 Wind from varies
Wind: varies 3 mph , 6 km/h
Temperature: 99°F , 37°C
Dew Point: 48°F , 9°C
Humidity: 18%
Barometer: 29.88 inHg , 1011.9 hPa
Clouds: Few Clouds
Visibility: 10 miles , 16 km
Cloud details: Few Clouds 16000 ft
2020/08/07 17:51 KPHX 071751Z VRB03KT 10SM FEW160 37/09 A2988 RMK AO2 SLP096 T03720089 10372 20283 50004
KGYR - Goodyear Municip, Arizona, USA
Distance from station: SSW 34mi, 55km
Updated: 08/07/2020 10:47am
Clear
Clear
 Wind from varies
Wind: varies 5 mph , 7 km/h
Temperature: 97°F , 36°C
Dew Point: 59°F , 15°C
Humidity: 28%
Barometer: 29.89 inHg , 1012.2 hPa
Clouds: Clear
Visibility: 10 miles , 16 km
2020/08/07 17:47 KGYR 071747Z VRB04KT 10SM SKC 36/15 A2989
 
KFFZ - Mesa/Falcon Fld, Arizona, USA
Distance from station: SE 37mi, 60km
Updated: 08/07/2020 10:54am
Clear
Clear
 Wind from ESE
Wind: ESE 3 mph , 6 km/h
Temperature: 99°F , 37°C
Dew Point: 45°F , 7°C
Humidity: 16%
Barometer: 29.91 inHg , 1012.9 hPa
Clouds: Clear
Visibility: 10 miles , 16 km
2020/08/07 17:54 KFFZ 071754Z 11003KT 10SM CLR 37/07 A2991 RMK AO2 SLP099 T03670067 10372 20283 50002
KBXK - Buckeye, Arizona, USA
Distance from station: SW 45mi, 72km
Updated: 08/07/2020 11:35am

 Wind from SE
Wind: SE 7 mph , 11 km/h
Temperature: 97°F , 36°C
Dew Point: 63°F , 17°C
Humidity: 32%
Barometer: 29.88 inHg , 1011.9 hPa
Visibility: 10 miles , 16 km
2020/08/07 18:35 KBXK 071835Z AUTO 14006KT 10SM 36/17 A2988 RMK A01
 
KIWA - Chandler/Mesa, Arizona, USA
Distance from station: SE 49mi, 78km
Updated: 08/07/2020 9:50am
NOT Current
Clear
Clear
 Wind from calm
Wind: Calm
Temperature: 97°F , 36°C
Dew Point: 46°F , 8°C
Humidity: 18%
Barometer: 29.93 inHg , 1013.5 hPa
Clouds: Clear
Visibility: 10 miles , 16 km
2020/08/07 16:50 KIWA 071650Z 00000KT 10SM SKC 36/08 A2993
KPAN - Payson, Arizona, USA
Distance from station: ENE 53mi, 85km
Updated: 08/07/2020 11:35am
Clear
Clear
 Wind from SW
Wind: SW 12 mph , 19 km/h
Temperature: 86°F , 30°C
Dew Point: 34°F , 1°C
Humidity: 15%
Barometer: 30.21 inHg , 1023 hPa
Clouds: Clear
Visibility: 10 miles , 16 km
2020/08/07 18:35 KPAN 071835Z AUTO 23010KT 180V250 10SM CLR 30/01 A3021 RMK AO2
 
KPRC - Prescott, Arizona, USA
Distance from station: NNW 56mi, 90km
Updated: 08/07/2020 10:53am
Clear
Clear
 Wind from S
Wind: S 15 mph , 24 km/h
Temperature: 84°F , 29°C
Dew Point: 36°F , 2°C
Humidity: 18%
Barometer: 30.17 inHg , 1021.7 hPa
Clouds: Clear
Visibility: 10 miles , 16 km
2020/08/07 17:53 KPRC 071753Z 18013KT 10SM CLR 29/02 A3017 RMK AO2 SLP128 T02890022 10289 20139 50006
KCGZ - Casa Granda, Arizona, USA
Distance from station: SSE 67mi, 109km
Updated: 08/07/2020 10:56am
Clear
Clear
 Wind from S
Wind: S 8 mph , 13 km/h
Temperature: 99°F , 37°C
Dew Point: 54°F , 12°C
Humidity: 22%
Barometer: 29.92 inHg , 1013.2 hPa
Clouds: Clear
Visibility: 10 miles , 16 km
2020/08/07 17:56 KCGZ 071756Z AUTO 17007KT 10SM CLR 37/12 A2992 RMK AO2 SLP111 6//// T03720122 10372 20267 50001
 
KSEZ - Sedona, Arizona, USA
Distance from station: NNE 70mi, 113km
Updated: 08/07/2020 11:35am
Clear
Clear
 Wind from S
Wind: S 9 mph , 15 km/h
Temperature: 90°F , 32°C
Dew Point: 37°F , 3°C
Humidity: 16%
Barometer: 30.16 inHg , 1021.3 hPa
Clouds: Clear
Visibility: 10 miles , 16 km
2020/08/07 18:35 KSEZ 071835Z AUTO 19008KT 10SM CLR 32/03 A3016 RMK AO2
KGXF - Gila Bend (aaf), Arizona, USA
Distance from station: SSW 77mi, 124km
Updated: 08/07/2020 10:58am
Clear
Clear
 Wind from NW
Wind: NW 3 mph , 6 km/h
Temperature: 99°F , 37°C
Dew Point: 54°F , 12°C
Humidity: 22%
Barometer: 29.85 inHg , 1010.8 hPa
Clouds: Clear
Visibility: 10 miles , 16 km
2020/08/07 17:58 KGXF 071758Z AUTO 31003KT 10SM CLR 37/12 A2985 RMK AO2 SLP093 T03660123 10368 20252 50001
 
KP08 - Coolidge Muni, Arizona, USA
Distance from station: SSE 77mi, 124km
Updated: 07/23/2020 8:10am
NOT Current
Nearby thunderstorm, Clear
Nearby thunderstorm, Clear
 Wind from SE
Wind: SE 20 mph , 31 km/h, Gust: 25 mph , 41 km/h
Temperature: 81°F , 27°C
Heat Index: 83°F , 28°C
Dew Point: 66°F , 19°C
Humidity: 62%
Barometer: 29.93 inHg , 1013.5 hPa
Summary: Nearby Thunderstorm
Clouds: Clear
Visibility: 10 miles , 16 km
2020/07/23 15:10 KP08 231510Z AUTO 14017G22KT 10SM VCTS CLR 27/19 A2993 RMK LTNG DSNT SE-S
KFLG - Flagstaff, Arizona, USA
Distance from station: NNE 91mi, 146km
Updated: 08/07/2020 10:57am
Clear
Clear
 Wind from SSW
Wind: SSW 18 mph , 30 km/h, Gust: 25 mph , 41 km/h
Temperature: 75°F , 24°C
Dew Point: 32°F , 0°C
Humidity: 21%
Barometer: 30.31 inHg , 1026.4 hPa
Clouds: Clear
Visibility: 10 miles , 16 km
2020/08/07 17:57 KFLG 071757Z 21016G22KT 10SM CLR 24/00 A3031 RMK AO2 SLP160 T02440000 10250 20078 51006
 
KCMR - Williams Clark, Arizona, USA
Distance from station: N 98mi, 158km
Updated: 08/07/2020 11:35am
Clear
Clear
 Wind from S
Wind: S 20 mph , 31 km/h, Gust: 28 mph , 44 km/h
Temperature: 81°F , 27°C
Dew Point: 27°F , -3°C
Humidity: 14%
Barometer: 30.28 inHg , 1025.4 hPa
Clouds: Clear
Visibility: 10 miles , 16 km
2020/08/07 18:35 KCMR 071835Z AUTO 19017G24KT 10SM CLR 27/M03 A3028 RMK AO2